Tampa Triumph — 3EJB3 — position and weather

sailwx.info

Track history (hours):
 
Tides and Currents Weather Stations Pressure Air Temp Water Temp Dewpoint Dewpoint Depression Visibility Wind Speed Wind Dir Waves Ship Positions

Tampa Triumph

Last reported at 2018-Jan-20 17:36 UTC. Time now 2018-Jan-22 16:28 UTC.
Position N 30°33' E 122°17'.

Length 365 m; draft 11.5 m.

Type: Cargo ship. MMSI: 374935000.

Date/timePositionNaut miles runAvg speedWind from/ knotsBaromVisibWave heightAir tempDewpointWater temp
2018-Jan-20 17:36N 30°33' E 122°17'1 8.9
2018-Jan-20 17:28N 30°33' E 122°16'710.7
2018-Jan-20 16:47N 30°35' E 122°08'3 0.1
2018-Jan-19 16:02N 30°37' E 122°04'0 2.3
2018-Jan-19 15:56N 30°37' E 122°04'2 2.9
2018-Jan-19 15:20N 30°36' E 122°06'413.2
2018-Jan-19 15:01N 30°34' E 122°10'714.2
2018-Jan-19 14:30N 30°33' E 122°18'3 4.4
2018-Jan-19 13:45N 30°33' E 122°22'3 8.6
2018-Jan-19 13:21N 30°32' E 122°26'  
2018-Jan-11 22:39N 22°19' E 114°06'1 4.2
2018-Jan-11 22:26N 22°20' E 114°07'1 1.3
2018-Jan-11 22:00N 22°20' E 114°08'0 0.0
2018-Jan-11 21:30N 22°20' E 114°08'0 0.0
2018-Jan-11 17:18N 22°20' E 114°08'0 0.0
2018-Jan-11 08:06N 22°20' E 114°08'0 0.0
2018-Jan-11 08:00N 22°20' E 114°08'0 0.0
2018-Jan-11 07:30N 22°20' E 114°08'0 0.0
2018-Jan-11 07:00N 22°20' E 114°08'0 0.0
2018-Jan-11 06:30N 22°20' E 114°08'  
Track history (hours):
 
Tides and Currents Weather Stations Pressure Air Temp Water Temp Dewpoint Dewpoint Depression Visibility Wind Speed Wind Dir Waves Ship Positions

Tampa Triumph

Last reported at 2018-Jan-20 17:36 UTC. Time now 2018-Jan-22 16:28 UTC.
Position N 30°33' E 122°17'.

Length 365 m; draft 11.5 m.

Type: Cargo ship. MMSI: 374935000.

Date/timePositionNaut miles runAvg speedWind from/ knotsBaromVisibWave heightAir tempDewpointWater temp
2018-Jan-20 17:36N 30°33' E 122°17'1 8.9
2018-Jan-20 17:28N 30°33' E 122°16'710.7
2018-Jan-20 16:47N 30°35' E 122°08'3 0.1
2018-Jan-19 16:02N 30°37' E 122°04'0 2.3
2018-Jan-19 15:56N 30°37' E 122°04'2 2.9
2018-Jan-19 15:20N 30°36' E 122°06'413.2
2018-Jan-19 15:01N 30°34' E 122°10'714.2
2018-Jan-19 14:30N 30°33' E 122°18'3 4.4
2018-Jan-19 13:45N 30°33' E 122°22'3 8.6
2018-Jan-19 13:21N 30°32' E 122°26'  
2018-Jan-11 22:39N 22°19' E 114°06'1 4.2
2018-Jan-11 22:26N 22°20' E 114°07'1 1.3
2018-Jan-11 22:00N 22°20' E 114°08'0 0.0
2018-Jan-11 21:30N 22°20' E 114°08'0 0.0
2018-Jan-11 17:18N 22°20' E 114°08'0 0.0
2018-Jan-11 08:06N 22°20' E 114°08'0 0.0
2018-Jan-11 08:00N 22°20' E 114°08'0 0.0
2018-Jan-11 07:30N 22°20' E 114°08'0 0.0
2018-Jan-11 07:00N 22°20' E 114°08'0 0.0
2018-Jan-11 06:30N 22°20' E 114°08'  

Dump ship's entire track history